Latest Weather Observations for Moree

IDN60801

Issued at 10:03 pm EST Sunday 28 August 2016 (issued every 30 minutes, with the page automatically refreshed every 10 minutes)

About weather observations | Map of weather stations | Latest weather observations for NSW | Other Formats
Station Details ID: 053115 Name: MOREE AERO Lat: -29.49 Lon: 149.85 Height: 213.0 m
Data from the previous 72 hours. | See also: Recent months at Moree
Date/Time
EST
Temp
°C
App
Temp
°C
Dew
Point
°C
Rel
Hum
%
Delta-T
°C
Wind Press
QNH
hPa
Press
MSL
hPa
Rain since
9am
mm
Dir  Spd
km/h
Gust
km/h
Spd
kts
Gust
kts
28/10:00pm 7.8 4.8 4.0 77 1.7 SE 9 9 5 5 1024.3 1024.3 0.0
28/09:30pm 9.0 7.7 4.2 72 2.1 CALM 0 0 0 0 1024.2 1024.2 0.0
28/09:00pm 9.2 7.9 4.2 71 2.2 CALM 0 0 0 0 1024.2 1024.2 0.0
28/08:30pm 9.7 8.4 4.1 68 2.5 CALM 0 7 0 4 1024.2 1024.2 0.0
28/08:00pm 10.7 8.3 4.2 64 2.9 SW 6 7 3 4 1024.2 1024.2 0.0
28/07:30pm 11.3 8.9 4.1 61 3.3 W 6 6 3 3 1024.0 1024.0 0.0
28/07:00pm 12.3 8.9 4.0 57 3.8 SW 11 11 6 6 1023.6 1023.6 0.0
28/06:30pm 13.0 9.5 3.7 53 4.2 SW 11 11 6 6 1023.4 1023.4 0.0
28/06:00pm 14.5 11.3 3.0 46 5.2 SW 9 11 5 6 1023.1 1023.1 0.0
28/05:30pm 16.6 12.8 1.9 37 6.6 WSW 11 13 6 7 1022.8 1022.8 0.0
28/05:00pm 17.0 13.2 1.8 36 6.8 WSW 11 13 6 7 1022.5 1022.5 0.0
28/04:30pm 17.9 14.0 1.0 32 7.6 SSW 11 15 6 8 1022.2 1022.2 0.0
28/04:00pm 18.5 14.5 0.6 30 8.0 W 11 17 6 9 1022.1 1022.1 0.0
28/03:30pm 19.0 14.4 1.5 31 8.0 W 15 24 8 13 1022.3 1022.3 0.0
28/03:00pm 18.8 14.7 -0.1 28 8.3 W 11 17 6 9 1022.2 1022.2 0.0
28/02:30pm 19.0 15.5 1.1 30 8.1 NNW 9 15 5 8 1022.3 1022.3 0.0
28/02:00pm 18.6 14.1 -0.2 28 8.2 WNW 13 20 7 11 1022.7 1022.7 0.0
28/01:30pm 18.4 13.1 -0.4 28 8.2 W 17 24 9 13 1023.2 1023.2 0.0
28/01:00pm 18.9 15.3 0.5 29 8.2 NW 9 17 5 9 1023.2 1023.2 0.0
28/12:30pm 18.0 14.2 1.9 34 7.4 NNW 11 13 6 7 1023.7 1023.7 0.0
28/12:00pm 17.5 14.0 1.1 33 7.3 WNW 9 15 5 8 1024.4 1024.4 0.0
28/11:30am 17.2 14.1 1.6 35 7.0 WNW 7 11 4 6 1024.8 1024.8 0.0
28/11:00am 16.2 13.5 2.6 40 6.2 SW 6 11 3 6 1025.4 1025.5 0.0
28/10:30am 16.2 13.7 3.6 43 5.9 SSE 6 11 3 6 1025.6 1025.7 0.0
28/10:00am 14.6 12.0 4.0 49 4.9 E 7 11 4 6 1025.7 1025.8 0.0
28/09:30am 13.4 11.0 7.0 65 3.1 ENE 9 13 5 7 1025.8 1025.9 0.0
28/09:00am 11.5 8.3 7.0 74 2.2 ENE 13 15 7 8 1025.6 1025.7 0.0
28/08:30am 9.1 6.9 6.0 81 1.4 ENE 7 9 4 5 1025.6 1025.7 0.0
28/08:00am 7.5 4.7 5.0 84 1.1 ENE 9 13 5 7 1025.4 1025.5 0.0
28/07:30am 5.8 3.2 4.0 88 0.8 NE 7 9 4 5 1025.3 1025.4 0.0
28/07:00am 3.1 0.2 2.4 95 0.3 NNE 7 7 4 4 1024.8 1024.8 0.0
28/06:30am 2.6 -0.4 2.0 96 0.2 NE 7 9 4 5 1024.6 1024.6 0.0
28/06:00am 2.2 -1.3 1.5 95 0.3 E 9 11 5 6 1024.0 1024.0 0.0
28/05:30am 2.0 -1.9 1.1 94 0.3 E 11 15 6 8 1023.8 1023.8 0.0
28/05:00am 2.8 1.1 1.8 93 0.4 CALM 0 0 0 0 1023.6 1023.6 0.0
28/04:30am 3.0 0.0 2.1 94 0.4 SSW 7 9 4 5 1023.5 1023.5 0.0
28/04:00am 2.9 -0.5 1.7 92 0.5 SW 9 9 5 5 1023.2 1023.2 0.0
28/03:30am 3.3 0.3 1.8 90 0.6 SW 7 9 4 5 1023.3 1023.3 0.0
28/03:00am 4.3 1.1 3.0 91 0.5 SW 9 11 5 6 1023.4 1023.4 0.0
28/02:30am 4.0 1.1 2.5 90 0.6 SSW 7 9 4 5 1023.2 1023.2 0.0
28/02:00am 4.1 0.8 2.6 90 0.6 SSW 9 11 5 6 1023.7 1023.7 0.0
28/01:30am 4.1 0.8 2.3 88 0.7 SSW 9 11 5 6 1024.0 1024.0 0.0
28/01:00am 4.8 1.5 2.7 86 0.9 SW 9 11 5 6 1024.1 1024.1 0.0
28/12:30am 5.5 1.6 3.3 86 0.9 SSW 13 15 7 8 1024.2 1024.2 0.0
28/12:00am 5.2 1.5 2.6 83 1.1 SSW 11 15 6 8 1024.5 1024.5 0.0
 
Date/Time
EST
Temp
°C
App
Temp
°C
Dew
Point
°C
Rel
Hum
%
Delta-T
°C
Wind Press
QNH
hPa
Press
MSL
hPa
Rain since
9am
mm
Dir  Spd
km/h
Gust
km/h
Spd
kts
Gust
kts
27/11:30pm 6.3 2.4 3.3 81 1.3 SW 13 17 7 9 1024.5 1024.5 0.0
27/11:00pm 6.8 2.9 3.6 80 1.4 SW 13 15 7 8 1024.4 1024.4 0.0
27/10:30pm 6.9 3.4 3.7 80 1.4 SW 11 15 6 8 1024.2 1024.2 0.0
27/10:00pm 7.2 4.2 4.0 80 1.4 WSW 9 11 5 6 1024.1 1024.1 0.0
27/09:30pm 7.8 4.8 4.2 78 1.6 WSW 9 11 5 6 1023.9 1023.9 0.0
27/09:00pm 8.0 4.7 4.6 79 1.5 SW 11 13 6 7 1023.9 1023.9 0.0
27/08:30pm 8.3 5.0 4.7 78 1.6 SW 11 11 6 6 1023.7 1023.7 0.0
27/08:00pm 9.1 5.9 4.9 75 1.9 SW 11 13 6 7 1023.5 1023.5 0.0
27/07:30pm 9.9 7.0 4.9 71 2.3 SW 9 13 5 7 1023.2 1023.2 0.0
27/07:00pm 10.9 7.7 5.0 67 2.7 WSW 11 13 6 7 1022.9 1022.9 0.0
27/06:30pm 11.7 8.5 4.9 63 3.1 WSW 11 13 6 7 1022.5 1022.5 0.0
27/06:00pm 13.0 9.4 5.2 59 3.7 SW 13 15 7 8 1022.2 1022.2 0.0
27/05:30pm 14.7 9.9 4.7 51 4.7 SW 19 24 10 13 1022.0 1022.0 0.0
27/05:00pm 15.9 10.6 4.9 48 5.2 WSW 22 28 12 15 1021.6 1021.6 0.0
27/04:30pm 16.5 10.9 5.2 47 5.5 SW 24 32 13 17 1021.3 1021.4 0.0
27/04:00pm 16.8 11.4 4.5 44 5.8 SW 22 30 12 16 1021.1 1021.1 0.0
27/03:30pm 17.0 11.2 4.3 43 6.0 SSW 24 32 13 17 1021.0 1021.0 0.0
27/03:00pm 17.1 11.4 4.8 44 5.9 SSW 24 33 13 18 1021.1 1021.1 0.0
27/02:30pm 17.0 10.5 2.6 38 6.6 SSW 26 35 14 19 1021.3 1021.4 0.0
27/02:00pm 17.1 10.8 3.8 41 6.2 SW 26 33 14 18 1021.5 1021.5 0.0
27/01:30pm 16.7 10.8 4.1 43 6.0 SW 24 35 13 19 1021.7 1021.7 0.0
27/01:00pm 16.5 10.9 5.2 47 5.4 SW 24 35 13 19 1022.2 1022.2 0.0
27/12:30pm 16.3 11.3 4.7 46 5.5 SW 20 33 11 18 1022.5 1022.5 0.0
27/12:00pm 15.9 11.1 4.6 47 5.3 SW 19 26 10 14 1022.8 1022.8 0.0
27/11:30am 15.7 11.5 5.9 52 4.8 SSW 17 26 9 14 1023.0 1023.0 0.0
27/11:00am 14.7 11.0 4.7 51 4.7 WSW 13 24 7 13 1023.4 1023.4 0.0
27/10:30am 13.3 10.1 5.0 57 3.9 SW 11 15 6 8 1023.5 1023.5 0.0
27/10:00am 12.0 8.9 5.4 64 3.1 SSW 11 15 6 8 1023.6 1023.6 0.0
27/09:30am 10.4 6.8 5.0 69 2.5 SW 13 19 7 10 1023.7 1023.7 0.0
27/09:00am 8.9 5.1 3.9 71 2.2 S 13 17 7 9 1023.9 1023.9 0.0
27/08:30am 7.5 4.1 3.9 78 1.6 SSE 11 15 6 8 1023.6 1023.6 0.0
27/08:00am 6.4 3.0 4.1 85 1.0 SSE 11 15 6 8 1023.0 1023.0 0.0
27/07:30am 3.9 0.9 2.3 89 0.6 SW 7 9 4 5 1022.9 1022.9 0.0
27/07:00am 2.8 -0.2 1.8 93 0.4 SSW 7 7 4 4 1022.6 1022.6 0.0
27/06:30am 1.5 -2.1 0.5 93 0.4 S 9 9 5 5 1022.4 1022.4 0.0
27/06:00am 1.9 -1.3 1.0 94 0.3 S 7 9 4 5 1022.1 1022.1 0.0
27/05:30am 1.8 -1.8 0.8 93 0.4 SSW 9 11 5 6 1021.5 1021.5 0.0
27/05:00am 2.3 -1.2 1.1 92 0.5 SW 9 9 5 5 1021.1 1021.1 0.0
27/04:30am 3.0 -0.4 1.8 92 0.5 W 9 9 5 5 1020.9 1020.9 0.0
27/04:00am 3.0 -0.8 1.7 91 0.5 WSW 11 13 6 7 1020.6 1020.6 0.0
27/03:30am 3.4 0.0 1.9 90 0.6 W 9 11 5 6 1020.6 1020.6 0.0
27/03:00am 3.2 -0.2 1.7 90 0.6 WSW 9 11 5 6 1020.8 1020.8 0.0
27/02:30am 3.7 -0.4 2.1 89 0.6 WSW 13 13 7 7 1021.0 1021.0 0.0
27/02:00am 3.7 -0.5 1.9 88 0.7 WSW 13 15 7 8 1021.0 1021.0 0.0
27/01:30am 4.5 0.8 2.2 85 0.9 W 11 13 6 7 1021.1 1021.1 0.0
27/01:00am 4.3 -0.1 2.5 88 0.7 WNW 15 17 8 9 1021.3 1021.4 0.0
27/12:30am 4.7 1.4 2.4 85 0.9 WSW 9 11 5 6 1021.2 1021.2 0.0
27/12:00am 5.4 0.7 2.9 84 1.0 SW 17 20 9 11 1021.2 1021.2 0.0
 
Date/Time
EST
Temp
°C
App
Temp
°C
Dew
Point
°C
Rel
Hum
%
Delta-T
°C
Wind Press
QNH
hPa
Press
MSL
hPa
Rain since
9am
mm
Dir  Spd
km/h
Gust
km/h
Spd
kts
Gust
kts
26/11:30pm 5.5 0.4 3.2 85 1.0 SW 19 20 10 11 1021.3 1021.4 0.0
26/11:00pm 5.1 1.1 2.6 84 1.0 SW 13 15 7 8 1021.5 1021.5 0.0
26/10:30pm 6.1 1.7 2.9 80 1.3 WSW 15 17 8 9 1021.6 1021.6 0.0
26/10:00pm 6.7 2.4 3.1 78 1.5 WSW 15 17 8 9 1021.5 1021.5 0.0
26/09:30pm 6.8 2.1 3.2 78 1.5 WSW 17 19 9 10 1021.5 1021.5 0.0
26/09:00pm 7.2 2.5 3.3 76 1.7 WSW 17 19 9 10 1021.1 1021.1 0.0
26/08:30pm 7.8 3.5 3.3 73 1.9 W 15 15 8 8 1020.9 1020.9 0.0
26/08:00pm 8.9 4.6 3.5 69 2.4 W 15 17 8 9 1020.9 1020.9 0.0
26/07:30pm 9.2 5.0 3.6 68 2.5 W 15 17 8 9 1020.8 1020.8 0.0
26/07:00pm 9.2 5.0 3.6 68 2.5 W 15 15 8 8 1020.6 1020.6 0.0
26/06:30pm 9.5 5.7 3.7 67 2.6 W 13 17 7 9 1020.2 1020.2 0.0
26/06:00pm 10.7 6.4 3.0 59 3.4 WSW 15 19 8 10 1019.7 1019.7 0.0
26/05:30pm 12.5 7.7 2.4 50 4.4 WSW 17 24 9 13 1019.4 1019.4 0.0
26/05:00pm 13.3 8.0 1.9 46 5.0 SW 19 26 10 14 1019.0 1019.0 0.0
26/04:30pm 13.7 7.4 1.7 44 5.3 SW 24 37 13 20 1018.5 1018.5 0.0
26/04:00pm 13.4 7.5 1.7 45 5.1 SW 22 33 12 18 1018.4 1018.4 0.0
26/03:30pm 13.9 7.6 1.5 43 5.4 SW 24 32 13 17 1018.2 1018.2 0.0
26/03:00pm 14.2 8.4 4.2 51 4.6 SSW 24 35 13 19 1018.0 1018.0 0.0
26/02:30pm 14.7 9.1 3.5 47 5.1 SW 22 33 12 18 1018.0 1018.0 0.0
26/02:00pm 13.6 7.9 2.8 48 4.8 SW 22 32 12 17 1018.1 1018.1 0.0
26/01:30pm 13.5 7.1 0.9 42 5.4 SW 24 32 13 17 1018.4 1018.4 0.0
26/01:00pm 13.7 7.1 2.3 46 5.0 SW 26 35 14 19 1018.9 1018.9 0.0
26/12:30pm 13.3 6.6 3.9 53 4.3 SSW 28 35 15 19 1019.2 1019.2 0.0
26/12:00pm 12.7 6.6 2.8 51 4.4 SW 24 35 13 19 1019.4 1019.4 0.0
26/11:30am 12.6 7.2 2.7 51 4.4 SSW 20 30 11 16 1019.9 1019.9 0.0
26/11:00am 12.1 7.5 5.5 64 3.1 SW 19 26 10 14 1020.4 1020.4 0.0
26/10:30am 12.1 - 6.6 69 2.6 - - - - - 1020.5 1020.5 0.0
26/10:00am 11.0 - 5.1 67 2.7 - - - - - 1020.5 1020.5 0.0
26/09:30am 10.2 - 4.8 69 2.5 - - - - - 1020.5 1020.5 0.0
26/09:00am 8.9 6.7 5.1 77 1.7 SW 6 11 3 6 1020.9 1020.9 0.0
26/08:30am 6.9 5.3 4.6 85 1.0 SW 2 6 1 3 1020.8 1020.8 0.0
26/08:00am 5.7 4.3 3.5 86 0.9 CALM 0 0 0 0 1020.5 1020.5 0.0
26/07:30am 4.8 3.4 3.5 91 0.5 CALM 0 0 0 0 1020.4 1020.4 0.0
26/07:00am 2.9 1.2 1.9 93 0.4 CALM 0 0 0 0 1020.1 1020.1 0.0
26/06:30am 1.9 - 1.2 95 0.3 - - - - - 1020.0 1020.0 0.0
26/06:00am 1.8 - 1.1 95 0.3 - - - - - 1019.6 1019.6 0.0
26/05:30am 2.1 - 1.2 94 0.3 - - - - - 1018.8 1018.8 0.0
26/05:00am 2.3 - 1.1 92 0.5 - - - - - 1018.4 1018.4 0.0
26/04:30am 3.0 - 2.0 93 0.4 - - - - - 1018.3 1018.3 0.0
26/04:00am 2.5 - 1.5 93 0.4 - - - - - 1018.3 1018.3 0.0
26/03:30am 2.6 - 1.4 92 0.5 - - - - - 1018.1 1018.1 0.0
26/03:00am 2.8 - 1.0 88 0.7 - - - - - 1018.1 1018.1 0.0
26/02:30am 4.1 - 2.3 88 0.7 - - - - - 1018.0 1018.0 0.0
26/02:00am 4.4 - 2.4 87 0.8 - - - - - 1018.1 1018.1 0.0
26/01:30am 4.5 - 2.5 87 0.8 - - - - - 1018.2 1018.2 0.0
26/01:00am 4.0 - 2.0 87 0.8 - - - - - 1018.3 1018.3 0.0
26/12:30am 5.1 - 3.1 87 0.8 - - - - - 1018.4 1018.4 0.0
26/12:00am 4.7 - 2.6 86 0.9 - - - - - 1018.4 1018.4 0.0
 
Date/Time
EST
Temp
°C
App
Temp
°C
Dew
Point
°C
Rel
Hum
%
Delta-T
°C
Wind Press
QNH
hPa
Press
MSL
hPa
Rain since
9am
mm
Dir  Spd
km/h
Gust
km/h
Spd
kts
Gust
kts
25/11:30pm 5.5 - 3.3 86 0.9 - - - - - 1018.4 1018.4 0.0
25/11:00pm 5.8 - 3.5 85 1.0 - - - - - 1018.3 1018.3 0.0
25/10:30pm 5.9 - 3.9 87 0.9 - - - - - 1018.1 1018.1 0.0

Other Formats:

Comma delimited format used in spreadsheet applications
http://www.bom.gov.au/fwo/IDN60801/IDN60801.95527.axf

JavaScript Object Notation format (JSON) in row-major order
http://www.bom.gov.au/fwo/IDN60801/IDN60801.95527.json